createdAt,value
2018-06-11T00:01:21.498Z,18.70
2018-06-11T00:04:24.649Z,17.43
2018-06-11T00:07:27.747Z,21.80
2018-06-11T00:10:30.873Z,20.10
2018-06-11T00:13:34.116Z,18.93
2018-06-11T00:16:37.290Z,18.87
2018-06-11T00:19:40.455Z,20.20
2018-06-11T00:22:43.689Z,19.67
2018-06-11T00:25:46.935Z,19.60
2018-06-11T00:28:50.340Z,20.83
2018-06-11T00:31:53.625Z,21.70
2018-06-11T00:34:56.911Z,18.57
2018-06-11T00:38:00.154Z,19.57
2018-06-11T00:41:03.325Z,20.27
2018-06-11T00:44:07.500Z,21.10
2018-06-11T00:47:10.697Z,22.53
2018-06-11T00:50:14.958Z,22.73
2018-06-11T00:53:18.007Z,19.27
2018-06-11T00:56:21.180Z,19.33
2018-06-11T00:59:24.250Z,23.77
2018-06-11T01:02:27.408Z,21.40
2018-06-11T01:05:30.776Z,19.90
2018-06-11T01:08:34.020Z,20.67
2018-06-11T01:11:37.312Z,22.00
2018-06-11T01:14:40.453Z,22.30
2018-06-11T01:17:43.654Z,26.67
2018-06-11T01:20:46.806Z,25.73
2018-06-11T01:23:49.941Z,28.17
2018-06-11T01:26:53.105Z,28.43
2018-06-11T01:29:56.160Z,29.10
2018-06-11T01:32:59.353Z,29.53
2018-06-11T01:36:02.661Z,29.30
2018-06-11T01:39:07.210Z,27.33
2018-06-11T01:42:10.332Z,31.57
2018-06-11T01:45:13.351Z,31.00
2018-06-11T01:48:16.688Z,34.43
2018-06-11T01:51:19.743Z,32.33
2018-06-11T01:54:22.868Z,33.53
2018-06-11T01:57:25.923Z,31.87
2018-06-11T02:00:29.065Z,33.43
2018-06-11T02:03:32.176Z,35.60
2018-06-11T02:06:35.287Z,37.63
2018-06-11T02:09:38.276Z,36.07
2018-06-11T02:12:41.475Z,35.33
2018-06-11T02:15:44.650Z,33.10
2018-06-11T02:18:47.673Z,32.53
2018-06-11T02:21:50.884Z,32.07
2018-06-11T02:24:54.068Z,32.80
2018-06-11T02:27:57.242Z,32.37
2018-06-11T02:31:00.315Z,32.83
2018-06-11T02:34:03.520Z,34.57
2018-06-11T02:40:07.352Z,33.50
2018-06-11T02:43:10.591Z,33.60
2018-06-11T02:46:13.662Z,32.67
2018-06-11T02:49:16.840Z,31.57
2018-06-11T02:52:19.996Z,30.40
2018-06-11T02:55:23.015Z,29.57
2018-06-11T02:58:26.210Z,33.37
2018-06-11T03:01:29.316Z,35.53
2018-06-11T03:04:33.049Z,34.10
2018-06-11T03:07:36.230Z,39.50
2018-06-11T03:10:39.374Z,39.27
2018-06-11T03:13:42.583Z,33.57
2018-06-11T03:16:46.730Z,34.03
2018-06-11T03:19:49.818Z,35.20
2018-06-11T03:22:53.150Z,33.93
2018-06-11T03:25:56.266Z,39.90
2018-06-11T03:28:59.284Z,35.70
2018-06-11T03:32:02.665Z,35.00
2018-06-11T03:35:05.735Z,35.40
2018-06-11T03:38:08.734Z,36.27
2018-06-11T03:41:11.906Z,37.37
2018-06-11T03:44:15.057Z,37.53
2018-06-11T03:47:18.200Z,31.30
2018-06-11T03:50:21.334Z,30.00
2018-06-11T03:53:24.539Z,31.40
2018-06-11T03:56:27.693Z,31.23
2018-06-11T03:59:30.766Z,29.47
2018-06-11T04:02:33.821Z,27.17
2018-06-11T04:05:37.005Z,31.37
2018-06-11T04:08:40.166Z,29.03
2018-06-11T04:11:43.302Z,32.13
2018-06-11T04:14:46.424Z,29.93
2018-06-11T04:17:49.536Z,27.50
2018-06-11T04:20:52.723Z,27.00
2018-06-11T04:23:55.790Z,27.07
2018-06-11T04:26:58.949Z,25.50
2018-06-11T04:30:02.150Z,25.97
2018-06-11T04:33:05.396Z,24.77
2018-06-11T04:36:08.417Z,24.93
2018-06-11T04:39:11.569Z,27.27
2018-06-11T04:42:14.647Z,24.53
2018-06-11T04:45:17.782Z,25.33
2018-06-11T04:48:20.765Z,26.40
2018-06-11T04:51:23.990Z,26.47
2018-06-11T04:54:27.092Z,26.10
2018-06-11T04:57:30.098Z,28.20
2018-06-11T05:00:33.155Z,26.73
2018-06-11T05:03:36.300Z,24.93
2018-06-11T05:06:39.354Z,25.40
2018-06-11T05:09:42.408Z,24.53
2018-06-11T05:12:45.675Z,25.07
2018-06-11T05:15:48.783Z,24.43
2018-06-11T05:18:52.054Z,23.33
2018-06-11T05:21:55.506Z,24.30
2018-06-11T05:24:58.874Z,26.23
2018-06-11T05:28:02.221Z,22.83
2018-06-11T05:31:05.397Z,25.83
2018-06-11T05:34:08.440Z,25.40
2018-06-11T05:37:11.690Z,22.73
2018-06-11T05:40:15.051Z,21.73
2018-06-11T05:43:18.361Z,22.33
2018-06-11T05:46:21.691Z,23.70
2018-06-11T05:49:24.804Z,23.40
2018-06-11T05:52:27.954Z,19.00
2018-06-11T05:55:31.001Z,25.20
2018-06-11T05:58:34.108Z,21.73
2018-06-11T06:01:37.184Z,21.90
2018-06-11T06:04:40.329Z,21.37
2018-06-11T06:07:43.449Z,21.57
2018-06-11T06:10:46.707Z,23.33
2018-06-11T06:13:50.771Z,27.73
2018-06-11T06:16:53.850Z,24.23
2018-06-11T06:19:57.801Z,25.37
2018-06-11T06:23:00.862Z,22.73
2018-06-11T06:26:05.456Z,24.67
2018-06-11T06:29:08.643Z,24.80
2018-06-11T06:32:11.883Z,23.13
2018-06-11T06:35:14.919Z,27.07
2018-06-11T06:38:18.346Z,24.27
2018-06-11T06:41:21.617Z,21.53
2018-06-11T06:44:25.037Z,20.07
2018-06-11T06:47:28.350Z,22.23
2018-06-11T06:50:31.659Z,24.10
2018-06-11T06:53:34.903Z,21.83
2018-06-11T06:56:38.275Z,24.33
2018-06-11T06:59:41.711Z,24.97
2018-06-11T07:02:45.084Z,26.17
2018-06-11T07:05:49.432Z,24.93
2018-06-11T07:08:53.342Z,24.03
2018-06-11T07:11:56.374Z,24.33
2018-06-11T07:14:59.502Z,23.57
2018-06-11T07:18:02.698Z,28.47
2018-06-11T07:21:05.791Z,27.20
2018-06-11T07:24:09.135Z,24.23
2018-06-11T07:27:13.518Z,27.87
2018-06-11T07:30:16.598Z,23.03
2018-06-11T07:33:20.834Z,22.23
2018-06-11T07:36:24.144Z,25.53
2018-06-11T07:39:30.842Z,24.30
2018-06-11T07:42:34.047Z,21.60
2018-06-11T07:45:38.388Z,20.53
2018-06-11T07:48:42.614Z,21.33
2018-06-11T07:51:48.191Z,21.13
2018-06-11T07:54:51.707Z,21.47
2018-06-11T07:57:55.073Z,20.53
2018-06-11T08:00:59.422Z,21.53
2018-06-11T08:04:02.835Z,19.40
2018-06-11T08:07:06.591Z,20.97
2018-06-11T08:10:09.965Z,21.43
2018-06-11T08:13:13.872Z,23.07
2018-06-11T08:16:17.026Z,23.53
2018-06-11T08:19:20.384Z,25.33
2018-06-11T08:22:24.725Z,22.47
2018-06-11T08:25:27.988Z,20.67
2018-06-11T08:28:31.515Z,23.63
2018-06-11T08:31:35.672Z,23.93
2018-06-11T08:34:39.002Z,22.70
2018-06-11T08:37:42.424Z,23.23
2018-06-11T08:40:46.043Z,24.63
2018-06-11T08:43:49.392Z,22.10
2018-06-11T08:46:52.616Z,26.70
2018-06-11T08:49:56.806Z,27.77
2018-06-11T08:52:59.987Z,25.90
2018-06-11T08:56:03.320Z,22.87
2018-06-11T08:59:07.517Z,21.83
2018-06-11T09:02:11.166Z,22.90
2018-06-11T09:05:14.662Z,20.97
2018-06-11T09:08:18.217Z,23.27
2018-06-11T09:11:21.514Z,21.57
2018-06-11T09:14:25.929Z,20.67
2018-06-11T09:17:29.193Z,20.13
2018-06-11T09:20:33.226Z,25.90
2018-06-11T09:23:36.229Z,22.63
2018-06-11T09:26:39.582Z,21.13
2018-06-11T09:29:42.906Z,24.47
2018-06-11T09:32:46.319Z,23.47
2018-06-11T09:35:49.673Z,21.60
2018-06-11T09:38:53.101Z,23.50
2018-06-11T09:41:58.400Z,26.33
2018-06-11T09:45:03.782Z,22.47
2018-06-11T09:48:07.065Z,22.77
2018-06-11T09:51:10.544Z,20.87
2018-06-11T09:54:14.149Z,20.37
2018-06-11T09:57:17.822Z,21.50
2018-06-11T10:00:26.937Z,21.60
2018-06-11T10:03:30.805Z,20.87
2018-06-11T10:06:34.784Z,19.87
2018-06-11T10:09:38.336Z,20.80
2018-06-11T10:12:42.014Z,19.80
2018-06-11T10:15:45.961Z,19.13
2018-06-11T10:18:49.453Z,18.70
2018-06-11T10:21:53.044Z,19.33
2018-06-11T10:24:56.417Z,19.33
2018-06-11T10:27:59.905Z,17.20
2018-06-11T10:31:03.305Z,21.60
2018-06-11T10:34:06.582Z,22.77
2018-06-11T10:37:09.740Z,20.13
2018-06-11T10:40:13.009Z,20.83
2018-06-11T10:43:16.378Z,21.37
2018-06-11T10:46:19.698Z,17.80
2018-06-11T10:49:23.174Z,21.13
2018-06-11T10:52:26.543Z,19.10
2018-06-11T10:55:29.680Z,18.57
2018-06-11T10:58:32.883Z,20.70
2018-06-11T11:01:36.404Z,16.97
2018-06-11T11:04:40.229Z,19.50
2018-06-11T11:07:43.928Z,22.00
2018-06-11T11:10:47.460Z,17.90
2018-06-11T11:13:50.936Z,24.17
2018-06-11T11:16:54.542Z,16.90
2018-06-11T11:19:57.748Z,19.83
2018-06-11T11:23:00.923Z,16.73
2018-06-11T11:26:04.022Z,20.23
2018-06-11T11:29:08.138Z,19.47
2018-06-11T11:32:11.367Z,18.40
2018-06-11T11:35:14.709Z,18.10
2018-06-11T11:38:18.044Z,16.50
2018-06-11T11:41:21.648Z,18.83
2018-06-11T11:44:26.099Z,20.80
2018-06-11T11:47:29.510Z,20.83
2018-06-11T11:50:33.025Z,21.80
2018-06-11T11:53:36.402Z,20.53
2018-06-11T11:56:40.780Z,18.80
2018-06-11T11:59:43.889Z,24.07
2018-06-11T12:02:47.586Z,19.27
2018-06-11T12:05:50.900Z,20.53
2018-06-11T12:08:54.037Z,18.47
2018-06-11T12:11:57.208Z,21.57
2018-06-11T12:15:00.461Z,21.77
2018-06-11T12:18:03.637Z,22.90
2018-06-11T12:21:07.023Z,22.43
2018-06-11T12:24:10.119Z,21.40
2018-06-11T12:27:13.422Z,21.23
2018-06-11T12:30:16.813Z,20.27
2018-06-11T12:33:19.867Z,20.17
2018-06-11T12:36:23.089Z,23.00
2018-06-11T12:39:26.469Z,20.50
2018-06-11T12:42:29.718Z,22.83
2018-06-11T12:45:32.830Z,18.30
2018-06-11T12:48:35.969Z,20.37
2018-06-11T12:51:39.283Z,20.73
2018-06-11T12:54:42.690Z,22.47
2018-06-11T12:57:46.058Z,24.20
2018-06-11T13:00:49.372Z,23.57
2018-06-11T13:03:52.582Z,22.03
2018-06-11T13:06:58.001Z,20.60
2018-06-11T13:10:04.515Z,25.07
2018-06-11T13:13:08.841Z,22.97
2018-06-11T13:16:12.330Z,26.27
2018-06-11T13:19:15.763Z,22.90
2018-06-11T13:22:19.252Z,21.27
2018-06-11T13:25:22.957Z,23.80
2018-06-11T13:28:26.444Z,22.10
2018-06-11T13:31:29.753Z,22.43
2018-06-11T13:34:33.181Z,20.43
2018-06-11T13:37:36.215Z,22.67
2018-06-11T13:40:39.419Z,21.43
2018-06-11T13:43:42.928Z,22.60
2018-06-11T13:46:47.270Z,32.73
2018-06-11T13:49:50.873Z,21.37
2018-06-11T13:52:56.259Z,21.10
2018-06-11T13:56:00.557Z,22.10
2018-06-11T13:59:03.982Z,24.13
2018-06-11T14:02:07.267Z,23.20
2018-06-11T14:05:10.520Z,24.80
2018-06-11T14:08:13.990Z,23.50
2018-06-11T14:11:18.071Z,21.73
2018-06-11T14:14:21.272Z,23.20
2018-06-11T14:17:24.445Z,28.13
2018-06-11T14:20:27.669Z,24.77
2018-06-11T14:23:30.757Z,24.50
2018-06-11T14:26:33.922Z,25.23
2018-06-11T14:29:38.215Z,26.30
2018-06-11T14:32:43.377Z,27.27
2018-06-11T14:35:46.522Z,26.87
2018-06-11T14:38:49.805Z,29.07
2018-06-11T14:41:53.804Z,34.73
2018-06-11T14:44:57.115Z,31.00
2018-06-11T14:48:00.394Z,33.70
2018-06-11T14:51:03.616Z,37.90
2018-06-11T14:54:06.902Z,36.87
2018-06-11T14:57:10.152Z,37.77
2018-06-11T15:00:13.437Z,36.97
2018-06-11T15:03:17.190Z,39.20
2018-06-11T15:06:20.454Z,39.70
2018-06-11T15:09:23.662Z,40.70
2018-06-11T15:12:28.000Z,40.17
2018-06-11T15:15:31.339Z,38.83
2018-06-11T15:18:34.343Z,36.40
2018-06-11T15:21:37.409Z,41.33
2018-06-11T15:24:40.671Z,41.10
2018-06-11T15:27:44.171Z,41.50
2018-06-11T15:30:47.310Z,39.93
2018-06-11T15:33:50.929Z,36.27
2018-06-11T15:36:54.379Z,40.60
2018-06-11T15:39:58.836Z,36.87
2018-06-11T15:43:02.244Z,37.43
2018-06-11T15:46:06.550Z,37.17
2018-06-11T15:49:09.871Z,40.00
2018-06-11T15:52:13.209Z,40.33
2018-06-11T15:55:16.708Z,39.50
2018-06-11T15:58:20.372Z,43.37
2018-06-11T16:01:23.723Z,38.50
2018-06-11T16:04:29.453Z,41.80
2018-06-11T16:07:32.859Z,37.33
2018-06-11T16:10:35.956Z,45.67
2018-06-11T16:13:40.212Z,40.87
2018-06-11T16:16:43.648Z,38.30
2018-06-11T16:19:47.208Z,37.73
2018-06-11T16:22:51.368Z,35.47
2018-06-11T16:25:54.647Z,37.03
2018-06-11T16:28:58.062Z,34.93
2018-06-11T16:32:08.271Z,35.97
2018-06-11T16:35:11.867Z,36.93
2018-06-11T16:38:14.980Z,38.27
2018-06-11T16:41:18.061Z,36.87
2018-06-11T16:44:21.232Z,35.37
2018-06-11T16:47:24.323Z,38.10
2018-06-11T16:50:27.439Z,38.60
2018-06-11T16:53:30.587Z,32.37
2018-06-11T16:56:33.628Z,34.83
2018-06-11T16:59:38.866Z,38.37
2018-06-11T17:02:42.222Z,38.13
2018-06-11T17:05:45.750Z,39.30
2018-06-11T17:08:48.895Z,40.83
2018-06-11T17:11:51.928Z,39.23
2018-06-11T17:14:55.125Z,41.10
2018-06-11T17:17:58.219Z,38.03
2018-06-11T17:21:01.420Z,42.63
2018-06-11T17:24:04.646Z,45.07
2018-06-11T17:27:07.950Z,45.87
2018-06-11T17:30:11.102Z,50.27
2018-06-11T17:33:14.620Z,41.47
2018-06-11T17:36:18.098Z,39.27
2018-06-11T17:39:21.493Z,37.83
2018-06-11T17:42:25.018Z,39.77
2018-06-11T17:45:29.103Z,37.87
2018-06-11T17:48:32.219Z,37.87
2018-06-11T17:51:35.545Z,43.53
2018-06-11T17:54:38.753Z,43.20
2018-06-11T17:57:41.928Z,55.63
2018-06-11T18:00:45.074Z,58.33
2018-06-11T18:03:48.120Z,39.57
2018-06-11T18:06:51.213Z,42.67
2018-06-11T18:09:55.353Z,37.10
2018-06-11T18:12:58.425Z,34.50
2018-06-11T18:16:01.658Z,37.30
2018-06-11T18:19:05.175Z,37.73
2018-06-11T18:22:08.584Z,32.27
2018-06-11T18:25:12.127Z,35.07
2018-06-11T18:28:15.504Z,35.30
2018-06-11T18:31:20.059Z,46.83
2018-06-11T18:34:23.413Z,54.37
2018-06-11T18:37:26.977Z,58.60
2018-06-11T18:40:30.205Z,69.47
2018-06-11T18:43:33.865Z,64.13
2018-06-11T18:46:37.452Z,67.67
2018-06-11T18:49:40.684Z,74.40
2018-06-11T18:52:43.796Z,76.73
2018-06-11T18:55:47.014Z,76.63
2018-06-11T18:58:50.323Z,72.63
2018-06-11T19:01:53.566Z,72.27
2018-06-11T19:04:56.871Z,83.07
2018-06-11T19:07:59.993Z,89.33
2018-06-11T19:11:03.350Z,89.17
2018-06-11T19:14:06.702Z,86.67
2018-06-11T19:17:10.104Z,81.40
2018-06-11T19:20:13.342Z,29.57
2018-06-11T19:23:16.598Z,33.90
2018-06-11T19:26:20.659Z,31.07
2018-06-11T19:29:23.766Z,25.53
2018-06-11T19:32:27.265Z,30.43
2018-06-11T19:35:30.973Z,29.50
2018-06-11T19:38:34.225Z,26.03
2018-06-11T19:41:37.377Z,24.87
2018-06-11T19:44:40.568Z,32.07
2018-06-11T19:47:44.013Z,25.83
2018-06-11T19:50:47.307Z,25.43
2018-06-11T19:53:51.151Z,23.40
2018-06-11T19:56:54.425Z,19.93
2018-06-11T19:59:57.637Z,22.23
2018-06-11T20:03:00.846Z,17.83
2018-06-11T20:06:03.912Z,19.33
2018-06-11T20:09:07.619Z,20.93
2018-06-11T20:12:10.899Z,21.10
2018-06-11T20:15:14.012Z,22.20
2018-06-11T20:18:17.079Z,19.90
2018-06-11T20:21:20.335Z,28.70
2018-06-11T20:24:23.709Z,22.37
2018-06-11T20:27:26.934Z,23.33
2018-06-11T20:30:30.441Z,23.90
2018-06-11T20:33:33.789Z,22.40
2018-06-11T20:36:36.826Z,18.77
2018-06-11T20:39:39.881Z,22.27
2018-06-11T20:42:42.947Z,24.30
2018-06-11T20:45:46.133Z,18.50
2018-06-11T20:48:49.258Z,19.23
2018-06-11T20:51:52.518Z,18.03
2018-06-11T20:54:55.832Z,22.30
2018-06-11T20:57:59.128Z,21.13
2018-06-11T21:01:03.288Z,21.10
2018-06-11T21:04:06.746Z,21.47
2018-06-11T21:07:09.865Z,17.63
2018-06-11T21:10:13.225Z,18.20
2018-06-11T21:13:16.337Z,19.83
2018-06-11T21:16:19.483Z,16.17
2018-06-11T21:19:22.729Z,17.60
2018-06-11T21:22:25.860Z,17.73
2018-06-11T21:25:29.023Z,16.77
2018-06-11T21:28:32.217Z,16.73
2018-06-11T21:31:35.292Z,16.00
2018-06-11T21:34:38.374Z,18.70
2018-06-11T21:37:41.477Z,17.83
2018-06-11T21:40:44.826Z,20.47
2018-06-11T21:43:48.032Z,15.57
2018-06-11T21:46:51.225Z,16.70
2018-06-11T21:49:54.397Z,19.53
2018-06-11T21:52:57.475Z,19.37
2018-06-11T21:56:00.666Z,19.40
2018-06-11T21:59:04.897Z,18.10
2018-06-11T22:02:08.000Z,18.97
2018-06-11T22:05:11.126Z,19.67
2018-06-11T22:08:14.144Z,19.67
2018-06-11T22:11:17.191Z,17.87
2018-06-11T22:14:20.333Z,21.37
2018-06-11T22:17:23.521Z,20.40
2018-06-11T22:20:26.730Z,16.90
2018-06-11T22:23:29.912Z,22.57
2018-06-11T22:26:33.287Z,18.60
2018-06-11T22:29:36.539Z,16.20
2018-06-11T22:32:39.807Z,20.20
2018-06-11T22:35:43.654Z,17.60
2018-06-11T22:38:48.095Z,18.67
2018-06-11T22:41:52.341Z,17.60
2018-06-11T22:45:01.988Z,18.60
2018-06-11T22:48:05.683Z,16.93
2018-06-11T22:51:09.128Z,20.07
2018-06-11T22:54:13.126Z,22.20
2018-06-11T22:57:16.325Z,18.97
2018-06-11T23:00:38.584Z,20.97
2018-06-11T23:03:41.934Z,17.97
2018-06-11T23:06:46.140Z,21.50
2018-06-11T23:09:49.513Z,25.10
2018-06-11T23:12:53.234Z,37.63
2018-06-11T23:15:56.515Z,41.57
2018-06-11T23:18:59.995Z,37.50
2018-06-11T23:22:03.624Z,42.43
2018-06-11T23:25:07.561Z,35.40
2018-06-11T23:28:10.597Z,23.73
2018-06-11T23:31:13.769Z,23.67
2018-06-11T23:34:16.959Z,21.67
2018-06-11T23:37:20.110Z,18.90
2018-06-11T23:40:23.175Z,17.53
2018-06-11T23:43:27.340Z,21.03
2018-06-11T23:46:30.497Z,22.03
2018-06-11T23:49:33.649Z,29.03
2018-06-11T23:52:36.779Z,29.13
2018-06-11T23:55:40.830Z,25.20
2018-06-11T23:58:43.998Z,21.43
